DW8835 La Escala ES current weather conditions

sailwx.info

Wind from 350 at 6 knots gusting 13

Air temperature 10.0° C
Dewpoint 0.6° C

Last reported at 2015-Jan-27 21:41 UTC.
Time now 2015-Jan-27 23:02 UTC

Location: N 42°07' E 003°08'.
View on Google Maps.

See reports from other nearby stations

  
Tides and Currents Weather Stations Pressure Air Temp Water Temp Dewpoint Dewpoint Depression Visibility Wind Speed Wind Dir Waves Ship Positions
date/time (UTC)wind fromknots sea level pressurealtimeterstation pressurevisibilityair tempwater tempwave heightnotes
2015-Jan-27 21:41 350 6 gusting 13 10.0
2015-Jan-27 21:31 348 11 gusting 17 10.0
2015-Jan-27 21:21 360 9 gusting 17 10.0
2015-Jan-27 21:12 350 10 gusting 20 10.0
2015-Jan-27 21:01 355 9 gusting 17 10.0
2015-Jan-27 20:51 329 7 gusting 19 10.0
2015-Jan-27 20:41 332 7 gusting 19 10.0
2015-Jan-27 20:31 310 10 gusting 24 10.0
2015-Jan-27 20:21 355 13 gusting 26 10.0
2015-Jan-27 20:11 355 13 gusting 24 10.0
2015-Jan-27 20:01 318 16 gusting 24 10.0
2015-Jan-27 19:51 343 13 gusting 24 10.0
2015-Jan-27 19:41 329 12 gusting 20 10.0
2015-Jan-27 19:32 315 12 gusting 20 10.0
2015-Jan-27 19:21 010 11 gusting 19 10.0
2015-Jan-27 19:11 351 13 gusting 22 10.6
2015-Jan-27 19:01 355 13 gusting 26 10.6
2015-Jan-27 18:51 065 16 gusting 29 10.6
2015-Jan-27 18:41 327 14 gusting 26 10.6
2015-Jan-27 18:31 322 13 gusting 24 10.6
2015-Jan-27 18:21 323 14 gusting 28 10.6
2015-Jan-27 18:11 351 12 gusting 24 10.6
2015-Jan-27 18:01 300 12 gusting 19 10.6
2015-Jan-27 17:51 005 13 gusting 23 10.6
2015-Jan-27 17:41 351 7 gusting 16 10.0
2015-Jan-27 17:31 322 11 gusting 17 10.0
2015-Jan-27 17:21 344 11 gusting 24 10.0
2015-Jan-27 17:11 329 13 gusting 26 10.0
2015-Jan-27 17:01 351 13 gusting 21 10.6
2015-Jan-27 16:51 313 10 gusting 20 10.6
2015-Jan-27 16:41 333 14 gusting 27 10.6
2015-Jan-27 16:31 355 13 gusting 23 11.1
2015-Jan-27 16:21 333 12 gusting 24 11.1
2015-Jan-27 16:11 355 13 gusting 26 11.1
2015-Jan-27 16:01 330 13 gusting 24 11.1
2015-Jan-27 15:51 341 12 gusting 20 11.1
2015-Jan-27 15:41 312 9 gusting 20 11.1
2015-Jan-27 15:31 335 12 gusting 18 11.1
2015-Jan-27 15:21 306 8 gusting 19 11.1
2015-Jan-27 15:11 341 7 gusting 20 11.1
2015-Jan-27 15:01 351 10 gusting 19 11.1
2015-Jan-27 14:51 327 12 gusting 21 11.1
2015-Jan-27 14:41 319 11 gusting 19 11.1
2015-Jan-27 14:31 325 12 gusting 22 11.1
2015-Jan-27 14:21 298 11 gusting 20 11.1
2015-Jan-27 14:11 327 9 gusting 19 11.1
2015-Jan-27 14:01 321 10 gusting 18 11.1
2015-Jan-27 13:51 021 12 gusting 18 11.7
2015-Jan-27 13:41 320 12 gusting 18 11.7
2015-Jan-27 13:31 355 10 gusting 19 12.2
2015-Jan-27 13:21 360 9 gusting 16 12.2
2015-Jan-27 13:11 355 8 gusting 15 12.2
2015-Jan-27 13:01 355 6 gusting 10 12.2
2015-Jan-27 12:51 344 5 gusting 13 12.2
2015-Jan-27 12:41 335 7 gusting 16 12.8
2015-Jan-27 12:31 344 6 gusting 10 12.8
2015-Jan-27 12:21 318 6 gusting 10 13.3
2015-Jan-27 12:11 307 3 gusting 5 13.3
2015-Jan-27 12:01 236 3 gusting 5 12.8
2015-Jan-27 11:51 240 1 gusting 4 12.2
2015-Jan-27 11:41 234 2 gusting 6 11.7
2015-Jan-27 11:31 192 2 gusting 5 11.7
2015-Jan-27 11:21 207 3 gusting 6 11.1
2015-Jan-27 11:11 181 2 gusting 6 11.1
2015-Jan-27 11:01 228 1 gusting 2 11.1
2015-Jan-27 10:41 234 10.0
2015-Jan-27 10:31 210 0 gusting 6 10.0
2015-Jan-27 10:21 203 2 gusting 5 9.4
2015-Jan-27 10:11 208 3 gusting 5 9.4
2015-Jan-27 10:01 248 2 gusting 6 8.9
2015-Jan-27 09:51 202 3 gusting 5 8.9
2015-Jan-27 09:41 242 2 gusting 6 8.3
2015-Jan-27 09:31 232 2 gusting 6 8.3
2015-Jan-27 09:21 168 2 gusting 6 8.3
2015-Jan-27 09:11 204 1 gusting 6 7.8
2015-Jan-27 09:01 197 3 gusting 6 7.8
2015-Jan-27 08:51 200 4 gusting 6 7.2
2015-Jan-27 08:41 188 4 gusting 6 7.2
2015-Jan-27 08:31 196 1 gusting 3 7.2
2015-Jan-27 08:21 211 2 gusting 6 6.7
2015-Jan-27 08:11 204 3 gusting 6 6.7
2015-Jan-27 08:01 192 2 gusting 7 6.1
2015-Jan-27 07:51 204 3 gusting 8 6.1
2015-Jan-27 07:41 268 3 gusting 6 6.1
2015-Jan-27 07:31 200 2 gusting 6 6.1
2015-Jan-27 07:21 172 1 gusting 6 5.6
2015-Jan-27 07:11 177 5 gusting 6 5.6
2015-Jan-27 07:01 189 5 gusting 8 5.6
2015-Jan-27 06:51 190 5 gusting 7 5.6
2015-Jan-27 05:41 202 3 gusting 6 5.6
2015-Jan-27 05:31 212 5 gusting 7 5.6
2015-Jan-27 05:21 210 5 gusting 8 5.6
2015-Jan-27 05:11 192 6 gusting 9 5.6
2015-Jan-27 05:01 189 5 gusting 6 6.1
2015-Jan-27 04:51 179 4 gusting 6 6.1
2015-Jan-27 04:41 229 4 gusting 6 6.1
2015-Jan-27 04:31 188 3 gusting 6 6.1
2015-Jan-27 04:21 202 2 gusting 6 6.1
2015-Jan-27 04:11 187 4 gusting 8 6.1
2015-Jan-27 04:01 184 3 gusting 8 6.7
2015-Jan-27 03:51 205 4 gusting 7 6.7
2015-Jan-27 03:41 228 2 gusting 5 6.7
2015-Jan-27 03:31 200 4 gusting 9 6.7
2015-Jan-27 03:21 250 6 gusting 9 6.7
2015-Jan-27 03:12 233 5 gusting 8 6.7
2015-Jan-27 03:01 233 2 gusting 4 6.7
2015-Jan-27 02:52 186 6.7
2015-Jan-27 02:41 194 4 gusting 7 6.7
2015-Jan-27 02:31 185 4 gusting 7 6.7
2015-Jan-27 02:21 184 4 gusting 8 7.2
2015-Jan-27 02:11 190 5 gusting 7 7.2
2015-Jan-27 02:01 232 3 gusting 8 7.8
2015-Jan-27 01:51 238 3 gusting 6 7.8
2015-Jan-27 01:41 221 1 gusting 6 7.8
2015-Jan-27 01:31 137 0 gusting 6 7.8
2015-Jan-27 01:21 173 2 gusting 7 7.8
2015-Jan-27 01:11 175 4 gusting 6 7.8
2015-Jan-27 01:01 190 1 gusting 4 7.8
2015-Jan-27 00:51 199 2 gusting 4 7.8
2015-Jan-27 00:41 190 3 gusting 6 7.8
2015-Jan-27 00:31 205 2 gusting 6 7.2
2015-Jan-27 00:21 188 3 gusting 6 7.2
2015-Jan-27 00:11 195 4 gusting 6 7.2
2015-Jan-27 00:01 203 2 gusting 4 7.2
2015-Jan-26 23:51 207 1 gusting 5 7.2
2015-Jan-26 23:41 203 2 gusting 5 7.2
2015-Jan-26 23:31 173 3 gusting 5 7.2
2015-Jan-26 23:21 208 2 gusting 5 7.2
2015-Jan-26 23:11 250 2 gusting 4 7.2
2015-Jan-26 23:01 224 2 gusting 3 7.2
2015-Jan-26 22:51 205 2 gusting 5 7.8
2015-Jan-26 22:41 209 1 gusting 4 7.8
2015-Jan-26 22:31 306 2 gusting 5 7.8
2015-Jan-26 22:21 293 1 gusting 6 7.8
2015-Jan-26 22:11 300 3 gusting 5 7.8
2015-Jan-26 22:01 249 3 gusting 6 7.8
2015-Jan-26 21:51 271 3 gusting 6 7.8
2015-Jan-26 21:41 279 3 gusting 6 8.3
2015-Jan-26 21:31 244 4 gusting 6 8.3
2015-Jan-26 21:21 342 2 gusting 5 8.3
2015-Jan-26 21:11 305 2 gusting 4 8.3
2015-Jan-26 21:01 355 1 gusting 3 8.3
2015-Jan-26 20:51 360 0 gusting 2 8.9
2015-Jan-26 20:41 360 1 gusting 5 8.9
2015-Jan-26 20:31 344 2 gusting 9 9.4
2015-Jan-26 20:21 302 6 gusting 8 9.4
2015-Jan-26 20:11 348 4 gusting 11 9.4
2015-Jan-26 20:01 011 5 gusting 10 9.4
2015-Jan-26 19:51 329 4 gusting 10 9.4
2015-Jan-26 19:41 355 4 gusting 13 9.4
2015-Jan-26 19:31 315 5 gusting 13 9.4
2015-Jan-26 19:21 329 9 gusting 16 8.9
2015-Jan-26 19:11 339 9 gusting 19 8.9
2015-Jan-26 19:01 005 9 gusting 17 8.9
2015-Jan-26 18:51 333 11 gusting 21 8.9
2015-Jan-26 18:41 360 10 gusting 19 8.9
2015-Jan-26 18:31 349 9 gusting 22 8.9
2015-Jan-26 18:21 355 13 gusting 22 8.9
2015-Jan-26 18:11 346 13 gusting 21 9.4
2015-Jan-26 18:01 355 12 gusting 25 9.4
2015-Jan-26 17:51 327 12 gusting 26 10.0
2015-Jan-26 17:41 338 13 gusting 21 10.0
2015-Jan-26 17:31 321 8 gusting 14 9.4
2015-Jan-26 17:21 307 6 gusting 10 9.4
2015-Jan-26 17:11 344 8 gusting 18 9.4
2015-Jan-26 17:01 350 9 gusting 14 9.4
2015-Jan-26 16:51 342 8 gusting 13 9.4
2015-Jan-26 16:41 032 6 gusting 12 9.4
2015-Jan-26 16:31 319 6 gusting 11 9.4
2015-Jan-26 16:21 333 6 gusting 13 9.4
2015-Jan-26 16:11 031 9 gusting 15 9.4
2015-Jan-26 16:01 360 5 gusting 10 9.4
2015-Jan-26 15:51 339 5 gusting 13 9.4
2015-Jan-26 15:41 329 7 gusting 13 9.4
2015-Jan-26 15:31 320 10 gusting 15 9.4
2015-Jan-26 15:21 319 9 gusting 19 9.4
2015-Jan-26 15:11 336 9 gusting 18 9.4
2015-Jan-26 15:01 322 12 gusting 20 9.4
2015-Jan-26 14:51 325 12 gusting 21 9.4
2015-Jan-26 14:41 307 13 gusting 19 8.9
2015-Jan-26 14:31 317 12 gusting 19 8.9
2015-Jan-26 14:11 301 10 gusting 16 8.9
2015-Jan-26 14:01 315 11 gusting 17 8.9
2015-Jan-26 13:51 323 10 gusting 14 9.4
2015-Jan-26 13:41 314 7 gusting 12 9.4
2015-Jan-26 13:31 355 6 gusting 13 9.4
2015-Jan-26 13:21 331 6 gusting 13 9.4
2015-Jan-26 13:11 355 5 gusting 13 9.4
2015-Jan-26 13:01 321 6 gusting 13 9.4
2015-Jan-26 12:51 340 6 gusting 13 9.4
2015-Jan-26 12:41 299 7 gusting 16 9.4
2015-Jan-26 12:31 313 9 gusting 14 9.4
2015-Jan-26 12:21 327 9 gusting 14 9.4
2015-Jan-26 12:11 312 10 gusting 18 9.4
2015-Jan-26 12:01 355 7 gusting 19 9.4
2015-Jan-26 11:51 340 11 gusting 18 9.4
2015-Jan-26 11:41 338 7 gusting 15 9.4
2015-Jan-26 11:31 313 6 gusting 15 9.4
2015-Jan-26 11:21 301 8 gusting 14 9.4
2015-Jan-26 11:11 310 6 gusting 14 9.4
2015-Jan-26 11:01 017 9 gusting 19 9.4
2015-Jan-26 10:51 348 6 gusting 13 9.4
2015-Jan-26 10:41 055 5 gusting 16 9.4
2015-Jan-26 10:31 355 7 gusting 19 9.4
2015-Jan-26 10:21 355 7 gusting 17 9.4
2015-Jan-26 10:11 346 7 gusting 17 9.4
2015-Jan-26 10:01 317 10 gusting 20 9.4
2015-Jan-26 09:51 329 13 gusting 26 9.4
2015-Jan-26 09:41 323 11 gusting 22 8.9
2015-Jan-26 09:31 349 11 gusting 19 8.3
2015-Jan-26 09:21 350 10 gusting 19 8.3
2015-Jan-26 09:11 340 11 gusting 19 8.3
2015-Jan-26 09:01 338 11 gusting 19 8.3
2015-Jan-26 08:51 336 8 gusting 18 8.3
2015-Jan-26 08:41 336 12 gusting 19 8.3
2015-Jan-26 08:31 010 9 gusting 16 8.3
2015-Jan-26 08:21 346 12 gusting 18 8.3
2015-Jan-26 08:11 323 12 gusting 19 8.3
2015-Jan-26 08:01 313 13 gusting 22 8.3
2015-Jan-26 07:51 346 13 gusting 22 7.8
2015-Jan-26 07:41 012 13 gusting 21 7.8
2015-Jan-26 07:31 005 12 gusting 18 7.8
2015-Jan-26 07:21 339 8 gusting 16 8.3
2015-Jan-26 07:11 328 12 gusting 20 8.3
2015-Jan-26 07:01 346 11 gusting 19 8.3
2015-Jan-26 06:51 343 6 gusting 16 8.3
2015-Jan-26 05:41 355 12 gusting 25 8.9
2015-Jan-26 05:31 340 13 gusting 23 9.4
2015-Jan-26 05:21 360 9 gusting 17 8.9
2015-Jan-26 05:11 320 13 gusting 21 8.9
2015-Jan-26 05:01 344 10 gusting 16 8.9
2015-Jan-26 04:51 005 13 gusting 19 8.9
2015-Jan-26 04:41 030 14 gusting 20 8.3
2015-Jan-26 04:31 355 12 gusting 21 8.3
2015-Jan-26 04:21 323 10 gusting 18 8.3
2015-Jan-26 04:11 355 9 gusting 21 8.3
2015-Jan-26 04:01 335 11 gusting 19 8.3
2015-Jan-26 03:51 326 11 gusting 18 8.3
2015-Jan-26 03:41 345 8 gusting 19 8.3
2015-Jan-26 03:31 332 11 gusting 20 8.3
2015-Jan-26 03:21 327 11 gusting 19 8.3
2015-Jan-26 03:11 334 9 gusting 19 8.3
2015-Jan-26 03:01 329 13 gusting 20 8.3
2015-Jan-26 02:51 308 10 gusting 20 8.3
2015-Jan-26 02:41 355 13 gusting 22 8.3
2015-Jan-26 02:31 010 13 gusting 28 8.3
2015-Jan-26 02:21 335 13 gusting 19 8.3
2015-Jan-26 02:11 339 13 gusting 21 8.3
2015-Jan-26 02:01 327 11 gusting 26 8.3
2015-Jan-26 01:51 328 11 gusting 22 8.3
2015-Jan-26 01:31 342 12 gusting 22 8.3
2015-Jan-26 01:21 339 13 gusting 22 8.3
2015-Jan-26 01:11 360 13 gusting 21 8.3
2015-Jan-26 01:01 355 12 gusting 24 8.3
2015-Jan-26 00:51 319 13 gusting 22 8.3
2015-Jan-26 00:41 331 8 gusting 21 7.8
2015-Jan-26 00:31 005 11 gusting 20 7.8
2015-Jan-26 00:21 344 13 gusting 23 7.8
2015-Jan-26 00:11 319 13 gusting 23 7.8
2015-Jan-26 00:01 299 11 gusting 24 8.3
2015-Jan-25 23:51 009 13 gusting 22 8.3
2015-Jan-25 23:41 355 15 gusting 26 8.3
2015-Jan-25 23:31 303 13 gusting 27 8.3
2015-Jan-25 23:21 355 15 gusting 25 8.3
2015-Jan-25 23:11 304 13 gusting 27 8.3
2015-Jan-25 23:01 351 16 gusting 26 8.3